Terminal Aerodrome Forecast
Issued by NWS

Home | Current Version | Previous Version | Text Only | Print | Product List | Glossary On
Versions: 1 2 3 4 5 6 7 8 9 10 11
424
FTUS42 KTBW 241125
TAFPIE
TAF
KPIE 241125Z 2412/2512 30008KT P6SM SCT015 BKN030
     FM241400 29011KT P6SM BKN025 OVC040
     FM241700 29015G21KT P6SM BKN025 BKN040
     FM242000 29016G23KT P6SM SCT025 BKN040
     FM242300 29014G20KT P6SM FEW045 SCT060
     FM250200 29010G15KT P6SM FEW045 SCT060=

USA.gov is the U.S. government's official web portal to all federal, state and local government web resources and services.